Main page
METAR-TAF:

METAR-TAF

Airports :

Dala Airport

Borlänge, Sweden

latitude: 60-26N, longitude: 015-31E, elevation: 145 m

Current weather observation

The report was made 19 minutes ago, at 13:20 UTC
Wind 5 kt from the South/Southwest
Temperature 1°C
Humidity 44%
Pressure 1000 hPa
Visibility 10 km or more
Scattered clouds at a height of 4500 ft

METAR: ESSD 281320Z 21005KT 9999 SCT045 01/M10 Q1000

Time: 14:39 (13:39 UTC)

Forecast

The report was made 2 hours and 9 minutes ago, at 11:30 UTC
Forecast valid from 28 at 12 UTC to 28 at 16 UTC
Wind 2 kt from variable directions
Visibility 10 km or more
no clouds below 1500 m and no cumulonimbus

TAF: ESSD 281130Z 2812/2816 VRB02KT CAVOK

Weather observations and forecasts of more than 4000 airports (METAR and TAF reports).

The available stations are represented by yellow and red dots on the map.

Hover mouse over dot to see the name of the station.

Then click to see weather observations and forecasts.

To change the map : click on the green buttons with a black cross to zoom in, on the green button with a dash to zoom out, or on the green arrows for adjacent maps.


METAR-TAF: